sensor_id;sensor_type;location;lat;lon;timestamp;pressure;altitude;pressure_sealevel;temperature;humidity
5651;BME280;40241;52.684;9.758;2023-04-25T00:00:18;100372.34;;;11.11;59.26
5651;BME280;40241;52.684;9.758;2023-04-25T00:02:43;100363.34;;;11.11;59.48
5651;BME280;40241;52.684;9.758;2023-04-25T00:05:08;100364.09;;;11.11;59.41
5651;BME280;40241;52.684;9.758;2023-04-25T00:07:34;100368.59;;;11.09;59.34
5651;BME280;40241;52.684;9.758;2023-04-25T00:10:00;100354.31;;;11.10;59.48
5651;BME280;40241;52.684;9.758;2023-04-25T00:12:25;100363.56;;;11.07;59.38
5651;BME280;40241;52.684;9.758;2023-04-25T00:14:53;100367.84;;;11.08;59.46
5651;BME280;40241;52.684;9.758;2023-04-25T00:17:19;100368.84;;;11.05;59.41
5651;BME280;40241;52.684;9.758;2023-04-25T00:19:44;100372.34;;;11.06;59.46
5651;BME280;40241;52.684;9.758;2023-04-25T00:22:11;100366.09;;;11.05;59.61
5651;BME280;40241;52.684;9.758;2023-04-25T00:24:37;100373.63;;;11.05;59.60
5651;BME280;40241;52.684;9.758;2023-04-25T00:27:02;100373.09;;;11.01;59.42
5651;BME280;40241;52.684;9.758;2023-04-25T00:29:28;100370.63;;;11.03;59.45
5651;BME280;40241;52.684;9.758;2023-04-25T00:31:53;100376.84;;;11.03;59.66
5651;BME280;40241;52.684;9.758;2023-04-25T00:34:19;100383.09;;;11.04;59.74
5651;BME280;40241;52.684;9.758;2023-04-25T00:36:44;100377.09;;;11.05;59.65
5651;BME280;40241;52.684;9.758;2023-04-25T00:39:10;100374.59;;;11.07;59.47
5651;BME280;40241;52.684;9.758;2023-04-25T00:41:35;100377.84;;;11.06;59.48
5651;BME280;40241;52.684;9.758;2023-04-25T00:44:01;100373.63;;;11.05;59.61
5651;BME280;40241;52.684;9.758;2023-04-25T00:46:27;100372.84;;;11.04;59.64
5651;BME280;40241;52.684;9.758;2023-04-25T00:48:53;100374.59;;;11.07;59.44
5651;BME280;40241;52.684;9.758;2023-04-25T00:51:20;100373.63;;;11.05;59.58
5651;BME280;40241;52.684;9.758;2023-04-25T00:53:48;100372.09;;;11.04;59.45
5651;BME280;40241;52.684;9.758;2023-04-25T00:56:15;100366.59;;;11.04;59.58
5651;BME280;40241;52.684;9.758;2023-04-25T00:58:41;100374.59;;;11.02;59.67
5651;BME280;40241;52.684;9.758;2023-04-25T01:01:07;100377.09;;;11.00;59.53
5651;BME280;40241;52.684;9.758;2023-04-25T01:03:34;100373.38;;;11.03;59.70
5651;BME280;40241;52.684;9.758;2023-04-25T01:06:01;100367.84;;;11.03;59.68
5651;BME280;40241;52.684;9.758;2023-04-25T01:08:27;100376.38;;;11.05;59.64
5651;BME280;40241;52.684;9.758;2023-04-25T01:10:52;100365.84;;;11.03;59.72
5651;BME280;40241;52.684;9.758;2023-04-25T01:13:18;100377.34;;;11.02;59.71
5651;BME280;40241;52.684;9.758;2023-04-25T01:15:43;100370.34;;;11.01;59.78
5651;BME280;40241;52.684;9.758;2023-04-25T01:18:09;100373.09;;;11.01;59.90
5651;BME280;40241;52.684;9.758;2023-04-25T01:20:37;100366.34;;;11.02;60.12
5651;BME280;40241;52.684;9.758;2023-04-25T01:23:03;100369.38;;;10.98;60.03
5651;BME280;40241;52.684;9.758;2023-04-25T01:25:30;100368.34;;;11.01;60.03
5651;BME280;40241;52.684;9.758;2023-04-25T01:27:57;100374.09;;;11.03;59.99
5651;BME280;40241;52.684;9.758;2023-04-25T01:30:23;100371.09;;;11.01;60.12
5651;BME280;40241;52.684;9.758;2023-04-25T01:32:49;100375.59;;;11.04;60.02
5651;BME280;40241;52.684;9.758;2023-04-25T01:35:14;100379.13;;;11.05;59.82
5651;BME280;40241;52.684;9.758;2023-04-25T01:37:41;100385.34;;;11.05;60.01
5651;BME280;40241;52.684;9.758;2023-04-25T01:40:08;100395.63;;;11.05;59.96
5651;BME280;40241;52.684;9.758;2023-04-25T01:42:36;100381.88;;;11.05;60.13
5651;BME280;40241;52.684;9.758;2023-04-25T01:45:01;100385.63;;;11.02;60.37
5651;BME280;40241;52.684;9.758;2023-04-25T01:47:27;100404.38;;;10.98;60.43
5651;BME280;40241;52.684;9.758;2023-04-25T01:49:53;100394.38;;;10.95;60.43
5651;BME280;40241;52.684;9.758;2023-04-25T01:52:18;100392.88;;;10.94;60.55
5651;BME280;40241;52.684;9.758;2023-04-25T01:54:43;100399.13;;;10.89;60.59
5651;BME280;40241;52.684;9.758;2023-04-25T01:57:11;100413.63;;;10.84;60.63
5651;BME280;40241;52.684;9.758;2023-04-25T01:59:36;100419.38;;;10.80;60.63
5651;BME280;40241;52.684;9.758;2023-04-25T02:02:02;100420.63;;;10.79;60.73
5651;BME280;40241;52.684;9.758;2023-04-25T02:04:30;100416.91;;;10.77;60.74
5651;BME280;40241;52.684;9.758;2023-04-25T02:06:56;100427.91;;;10.77;60.68
5651;BME280;40241;52.684;9.758;2023-04-25T02:09:21;100420.13;;;10.70;60.46
5651;BME280;40241;52.684;9.758;2023-04-25T02:11:47;100423.63;;;10.65;60.57
5651;BME280;40241;52.684;9.758;2023-04-25T02:14:13;100434.84;;;10.55;60.70
5651;BME280;40241;52.684;9.758;2023-04-25T02:16:38;100442.09;;;10.53;60.82
5651;BME280;40241;52.684;9.758;2023-04-25T02:19:05;100439.09;;;10.45;60.73
5651;BME280;40241;52.684;9.758;2023-04-25T02:21:30;100436.09;;;10.43;60.89
5651;BME280;40241;52.684;9.758;2023-04-25T02:23:56;100433.09;;;10.47;60.70
5651;BME280;40241;52.684;9.758;2023-04-25T02:26:21;100439.59;;;10.44;60.76
5651;BME280;40241;52.684;9.758;2023-04-25T02:28:49;100442.09;;;10.47;60.97
5651;BME280;40241;52.684;9.758;2023-04-25T02:31:15;100439.59;;;10.49;60.82
5651;BME280;40241;52.684;9.758;2023-04-25T02:33:40;100438.34;;;10.50;60.93
5651;BME280;40241;52.684;9.758;2023-04-25T02:36:06;100442.59;;;10.51;60.85
5651;BME280;40241;52.684;9.758;2023-04-25T02:38:31;100444.13;;;10.52;60.85
5651;BME280;40241;52.684;9.758;2023-04-25T02:40:56;100442.84;;;10.53;60.73
5651;BME280;40241;52.684;9.758;2023-04-25T02:43:22;100446.09;;;10.52;60.64
5651;BME280;40241;52.684;9.758;2023-04-25T02:45:47;100450.84;;;10.51;60.68
5651;BME280;40241;52.684;9.758;2023-04-25T02:48:12;100440.81;;;10.48;60.68
5651;BME280;40241;52.684;9.758;2023-04-25T02:50:38;100443.56;;;10.48;60.59
5651;BME280;40241;52.684;9.758;2023-04-25T02:53:03;100443.84;;;10.45;60.56
5651;BME280;40241;52.684;9.758;2023-04-25T02:55:28;100450.81;;;10.40;60.46
5651;BME280;40241;52.684;9.758;2023-04-25T02:57:54;100451.06;;;10.37;60.54
5651;BME280;40241;52.684;9.758;2023-04-25T03:00:21;100445.31;;;10.35;60.54
5651;BME280;40241;52.684;9.758;2023-04-25T03:02:47;100453.78;;;10.31;60.59
5651;BME280;40241;52.684;9.758;2023-04-25T03:05:12;100445.78;;;10.28;60.57
5651;BME280;40241;52.684;9.758;2023-04-25T03:07:38;100449.03;;;10.26;60.65
5651;BME280;40241;52.684;9.758;2023-04-25T03:10:06;100439.28;;;10.25;60.51
5651;BME280;40241;52.684;9.758;2023-04-25T03:12:31;100443.00;;;10.22;60.61
5651;BME280;40241;52.684;9.758;2023-04-25T03:14:57;100438.00;;;10.21;60.52
5651;BME280;40241;52.684;9.758;2023-04-25T03:17:22;100437.75;;;10.19;60.57
5651;BME280;40241;52.684;9.758;2023-04-25T03:19:47;100440.75;;;10.15;60.41
5651;BME280;40241;52.684;9.758;2023-04-25T03:22:13;100446.94;;;10.10;60.60
5651;BME280;40241;52.684;9.758;2023-04-25T03:24:38;100446.69;;;10.08;60.70
5651;BME280;40241;52.684;9.758;2023-04-25T03:27:04;100447.19;;;10.07;60.82
5651;BME280;40241;52.684;9.758;2023-04-25T03:29:29;100455.91;;;10.05;60.64
5651;BME280;40241;52.684;9.758;2023-04-25T03:31:55;100455.91;;;10.05;60.70
5651;BME280;40241;52.684;9.758;2023-04-25T03:34:20;100461.91;;;10.04;60.67
5651;BME280;40241;52.684;9.758;2023-04-25T03:36:49;100475.38;;;10.02;60.62
5651;BME280;40241;52.684;9.758;2023-04-25T03:39:14;100479.59;;;9.97;60.67
5651;BME280;40241;52.684;9.758;2023-04-25T03:41:40;100483.81;;;9.93;60.73
5651;BME280;40241;52.684;9.758;2023-04-25T03:44:05;100484.31;;;9.91;60.59
5651;BME280;40241;52.684;9.758;2023-04-25T03:46:31;100482.28;;;9.86;60.57
5651;BME280;40241;52.684;9.758;2023-04-25T03:48:56;100487.00;;;9.80;60.51
5651;BME280;40241;52.684;9.758;2023-04-25T03:51:21;100492.97;;;9.78;60.65
5651;BME280;40241;52.684;9.758;2023-04-25T03:53:47;100504.19;;;9.75;60.60
5651;BME280;40241;52.684;9.758;2023-04-25T03:56:13;100499.66;;;9.72;60.59
5651;BME280;40241;52.684;9.758;2023-04-25T03:58:38;100503.41;;;9.69;60.36
5651;BME280;40241;52.684;9.758;2023-04-25T04:01:03;100516.88;;;9.67;60.45
5651;BME280;40241;52.684;9.758;2023-04-25T04:03:35;100514.34;;;9.63;60.34
5651;BME280;40241;52.684;9.758;2023-04-25T04:06:04;100520.84;;;9.60;60.50
5651;BME280;40241;52.684;9.758;2023-04-25T04:08:31;100525.31;;;9.58;60.65
5651;BME280;40241;52.684;9.758;2023-04-25T04:10:59;100528.06;;;9.58;60.68
5651;BME280;40241;52.684;9.758;2023-04-25T04:13:28;100528.56;;;9.56;60.72
5651;BME280;40241;52.684;9.758;2023-04-25T04:15:54;100528.00;;;9.52;60.73
5651;BME280;40241;52.684;9.758;2023-04-25T04:18:20;100530.00;;;9.52;60.63
5651;BME280;40241;52.684;9.758;2023-04-25T04:20:46;100532.25;;;9.53;60.75
5651;BME280;40241;52.684;9.758;2023-04-25T04:23:12;100531.75;;;9.55;60.71
5651;BME280;40241;52.684;9.758;2023-04-25T04:25:38;100541.53;;;9.56;60.71
5651;BME280;40241;52.684;9.758;2023-04-25T04:28:05;100537.78;;;9.59;60.83
5651;BME280;40241;52.684;9.758;2023-04-25T04:30:31;100547.31;;;9.63;60.82
5651;BME280;40241;52.684;9.758;2023-04-25T04:32:56;100546.84;;;9.65;60.82
5651;BME280;40241;52.684;9.758;2023-04-25T04:35:22;100547.88;;;9.67;60.80
5651;BME280;40241;52.684;9.758;2023-04-25T04:37:48;100545.63;;;9.71;60.85
5651;BME280;40241;52.684;9.758;2023-04-25T04:40:14;100549.41;;;9.74;60.70
5651;BME280;40241;52.684;9.758;2023-04-25T04:42:43;100554.91;;;9.74;60.71
5651;BME280;40241;52.684;9.758;2023-04-25T04:45:10;100549.66;;;9.76;60.68
5651;BME280;40241;52.684;9.758;2023-04-25T04:47:36;100548.41;;;9.77;60.65
5651;BME280;40241;52.684;9.758;2023-04-25T04:50:11;100548.69;;;9.79;60.67
5651;BME280;40241;52.684;9.758;2023-04-25T04:52:37;100556.16;;;9.78;60.74
5651;BME280;40241;52.684;9.758;2023-04-25T04:55:03;100553.41;;;9.78;60.70
5651;BME280;40241;52.684;9.758;2023-04-25T04:57:29;100551.91;;;9.77;60.79
5651;BME280;40241;52.684;9.758;2023-04-25T04:59:54;100555.69;;;9.80;60.82
5651;BME280;40241;52.684;9.758;2023-04-25T05:02:20;100560.66;;;9.76;60.75
5651;BME280;40241;52.684;9.758;2023-04-25T05:04:45;100559.38;;;9.71;60.86
5651;BME280;40241;52.684;9.758;2023-04-25T05:07:12;100551.88;;;9.72;60.75
5651;BME280;40241;52.684;9.758;2023-04-25T05:09:37;100559.63;;;9.73;60.84
5651;BME280;40241;52.684;9.758;2023-04-25T05:12:02;100564.63;;;9.75;60.91
5651;BME280;40241;52.684;9.758;2023-04-25T05:14:28;100569.16;;;9.78;60.83
5651;BME280;40241;52.684;9.758;2023-04-25T05:16:53;100568.69;;;9.85;60.91
5651;BME280;40241;52.684;9.758;2023-04-25T05:19:18;100568.25;;;9.92;60.86
5651;BME280;40241;52.684;9.758;2023-04-25T05:21:44;100569.78;;;9.99;60.67
5651;BME280;40241;52.684;9.758;2023-04-25T05:24:09;100575.34;;;10.04;60.61
5651;BME280;40241;52.684;9.758;2023-04-25T05:26:34;100574.84;;;10.06;60.64
5651;BME280;40241;52.684;9.758;2023-04-25T05:29:00;100586.59;;;10.06;60.57
5651;BME280;40241;52.684;9.758;2023-04-25T05:31:26;100578.88;;;10.10;60.58
5651;BME280;40241;52.684;9.758;2023-04-25T05:33:51;100604.16;;;10.14;60.61
5651;BME280;40241;52.684;9.758;2023-04-25T05:36:18;100606.19;;;10.19;60.71
5651;BME280;40241;52.684;9.758;2023-04-25T05:38:44;100585.22;;;10.22;60.63
5651;BME280;40241;52.684;9.758;2023-04-25T05:41:10;100597.50;;;10.26;60.55
5651;BME280;40241;52.684;9.758;2023-04-25T05:43:35;100599.25;;;10.29;60.34
5651;BME280;40241;52.684;9.758;2023-04-25T05:46:00;100610.25;;;10.29;60.41
5651;BME280;40241;52.684;9.758;2023-04-25T05:48:26;100605.78;;;10.32;60.60
5651;BME280;40241;52.684;9.758;2023-04-25T05:50:51;100595.03;;;10.34;60.53
5651;BME280;40241;52.684;9.758;2023-04-25T05:53:17;100607.03;;;10.36;60.45
5651;BME280;40241;52.684;9.758;2023-04-25T05:55:43;100611.31;;;10.37;60.45
5651;BME280;40241;52.684;9.758;2023-04-25T05:58:08;100616.06;;;10.42;60.38
5651;BME280;40241;52.684;9.758;2023-04-25T06:00:34;100626.09;;;10.45;60.35
5651;BME280;40241;52.684;9.758;2023-04-25T06:02:59;100626.09;;;10.45;60.35
5651;BME280;40241;52.684;9.758;2023-04-25T06:05:24;100629.88;;;10.48;60.35
5651;BME280;40241;52.684;9.758;2023-04-25T06:07:50;100635.13;;;10.51;60.21
5651;BME280;40241;52.684;9.758;2023-04-25T06:10:15;100630.91;;;10.56;60.14
5651;BME280;40241;52.684;9.758;2023-04-25T06:12:41;100632.44;;;10.63;60.23
5651;BME280;40241;52.684;9.758;2023-04-25T06:15:07;100630.19;;;10.67;60.07
5651;BME280;40241;52.684;9.758;2023-04-25T06:17:33;100641.97;;;10.67;60.02
5651;BME280;40241;52.684;9.758;2023-04-25T06:19:58;100650.25;;;10.73;60.09
5651;BME280;40241;52.684;9.758;2023-04-25T06:22:24;100645.28;;;10.77;59.97
5651;BME280;40241;52.684;9.758;2023-04-25T06:24:49;100645.28;;;10.82;59.85
5651;BME280;40241;52.684;9.758;2023-04-25T06:27:14;100652.56;;;10.85;59.93
5651;BME280;40241;52.684;9.758;2023-04-25T06:29:40;100657.06;;;10.88;59.72
5651;BME280;40241;52.684;9.758;2023-04-25T06:32:05;100656.84;;;10.92;59.61
5651;BME280;40241;52.684;9.758;2023-04-25T06:34:30;100655.84;;;10.95;59.77
5651;BME280;40241;52.684;9.758;2023-04-25T06:36:56;100658.38;;;10.98;59.51
5651;BME280;40241;52.684;9.758;2023-04-25T06:39:21;100658.38;;;10.98;59.48
5651;BME280;40241;52.684;9.758;2023-04-25T06:41:48;100656.59;;;10.95;59.40
5651;BME280;40241;52.684;9.758;2023-04-25T06:44:14;100662.63;;;10.94;59.14
5651;BME280;40241;52.684;9.758;2023-04-25T06:46:40;100659.88;;;10.94;59.27
5651;BME280;40241;52.684;9.758;2023-04-25T06:49:05;100654.09;;;10.97;59.40
5651;BME280;40241;52.684;9.758;2023-04-25T06:51:30;100653.13;;;11.00;59.30
5651;BME280;40241;52.684;9.758;2023-04-25T06:53:56;100658.91;;;11.08;59.11
5651;BME280;40241;52.684;9.758;2023-04-25T06:56:22;100660.44;;;11.14;59.07
5651;BME280;40241;52.684;9.758;2023-04-25T06:58:48;100664.97;;;11.23;58.91
5651;BME280;40241;52.684;9.758;2023-04-25T07:01:13;100663.72;;;11.29;58.93
5651;BME280;40241;52.684;9.758;2023-04-25T07:03:39;100665.72;;;11.23;58.64
5651;BME280;40241;52.684;9.758;2023-04-25T07:06:04;100668.97;;;11.22;58.62
5651;BME280;40241;52.684;9.758;2023-04-25T07:08:30;100664.22;;;11.28;58.60
5651;BME280;40241;52.684;9.758;2023-04-25T07:10:55;100680.25;;;11.29;58.70
5651;BME280;40241;52.684;9.758;2023-04-25T07:13:21;100680.03;;;11.33;58.52
5651;BME280;40241;52.684;9.758;2023-04-25T07:15:46;100669.25;;;11.35;58.60
5651;BME280;40241;52.684;9.758;2023-04-25T07:18:13;100676.25;;;11.36;58.50
5651;BME280;40241;52.684;9.758;2023-04-25T07:20:38;100673.50;;;11.36;58.38
5651;BME280;40241;52.684;9.758;2023-04-25T07:23:03;100683.25;;;11.31;58.34
5651;BME280;40241;52.684;9.758;2023-04-25T07:25:29;100680.50;;;11.31;58.42
5651;BME280;40241;52.684;9.758;2023-04-25T07:27:55;100683.00;;;11.29;58.48
5651;BME280;40241;52.684;9.758;2023-04-25T07:30:21;100694.28;;;11.31;58.31
5651;BME280;40241;52.684;9.758;2023-04-25T07:32:48;100681.50;;;11.34;58.10
5651;BME280;40241;52.684;9.758;2023-04-25T07:35:13;100694.59;;;11.50;58.27
5651;BME280;40241;52.684;9.758;2023-04-25T07:37:39;100686.09;;;11.59;57.94
5651;BME280;40241;52.684;9.758;2023-04-25T07:40:05;100686.63;;;11.69;57.43
5651;BME280;40241;52.684;9.758;2023-04-25T07:42:30;100690.16;;;11.69;57.31
5651;BME280;40241;52.684;9.758;2023-04-25T07:44:56;100691.41;;;11.85;57.29
5651;BME280;40241;52.684;9.758;2023-04-25T07:47:21;100694.94;;;11.96;56.86
5651;BME280;40241;52.684;9.758;2023-04-25T07:49:46;100703.69;;;11.95;56.81
5651;BME280;40241;52.684;9.758;2023-04-25T07:52:12;100704.22;;;11.99;56.96
5651;BME280;40241;52.684;9.758;2023-04-25T07:54:37;100705.47;;;12.15;56.88
5651;BME280;40241;52.684;9.758;2023-04-25T07:57:03;100707.72;;;12.22;56.43
5651;BME280;40241;52.684;9.758;2023-04-25T07:59:29;100707.75;;;12.16;56.27
5651;BME280;40241;52.684;9.758;2023-04-25T08:01:54;100719.50;;;12.22;56.12
5651;BME280;40241;52.684;9.758;2023-04-25T08:04:20;100712.47;;;12.32;55.87
5651;BME280;40241;52.684;9.758;2023-04-25T08:06:45;100707.97;;;12.46;55.66
5651;BME280;40241;52.684;9.758;2023-04-25T08:09:11;100706.19;;;12.48;55.23
5651;BME280;40241;52.684;9.758;2023-04-25T08:11:37;100715.72;;;12.53;55.38
5651;BME280;40241;52.684;9.758;2023-04-25T08:14:02;100712.47;;;12.54;55.13
5651;BME280;40241;52.684;9.758;2023-04-25T08:16:28;100733.78;;;12.54;54.91
5651;BME280;40241;52.684;9.758;2023-04-25T08:18:53;100717.22;;;12.54;54.34
5651;BME280;40241;52.684;9.758;2023-04-25T08:21:19;100730.53;;;12.39;54.19
5651;BME280;40241;52.684;9.758;2023-04-25T08:23:44;100731.03;;;12.26;54.40
5651;BME280;40241;52.684;9.758;2023-04-25T08:26:10;100740.31;;;12.23;54.79
5651;BME280;40241;52.684;9.758;2023-04-25T08:28:35;100729.56;;;12.14;54.54
5651;BME280;40241;52.684;9.758;2023-04-25T08:31:00;100742.81;;;12.04;54.10
5651;BME280;40241;52.684;9.758;2023-04-25T08:33:26;100737.81;;;11.92;53.92
5651;BME280;40241;52.684;9.758;2023-04-25T08:35:51;100745.56;;;11.93;54.47
5651;BME280;40241;52.684;9.758;2023-04-25T08:38:17;100740.81;;;11.99;54.52
5651;BME280;40241;52.684;9.758;2023-04-25T08:40:43;100728.28;;;12.04;54.48
5651;BME280;40241;52.684;9.758;2023-04-25T08:43:09;100739.81;;;12.14;54.35
5651;BME280;40241;52.684;9.758;2023-04-25T08:45:40;100745.81;;;12.23;54.28
5651;BME280;40241;52.684;9.758;2023-04-25T08:48:11;100751.59;;;12.36;53.32
5651;BME280;40241;52.684;9.758;2023-04-25T08:50:40;100772.19;;;12.46;53.36
5651;BME280;40241;52.684;9.758;2023-04-25T08:53:09;100762.38;;;12.56;52.65
5651;BME280;40241;52.684;9.758;2023-04-25T08:55:37;100762.38;;;12.67;52.88
5651;BME280;40241;52.684;9.758;2023-04-25T08:58:04;100756.56;;;12.88;52.82
5651;BME280;40241;52.684;9.758;2023-04-25T09:00:30;100769.09;;;13.11;53.02
5651;BME280;40241;52.684;9.758;2023-04-25T09:02:57;100779.59;;;13.29;52.78
5651;BME280;40241;52.684;9.758;2023-04-25T09:05:23;100780.28;;;13.46;52.58
5651;BME280;40241;52.684;9.758;2023-04-25T09:07:49;100759.25;;;13.78;52.71
5651;BME280;40241;52.684;9.758;2023-04-25T09:10:14;100761.63;;;14.04;52.07
5651;BME280;40241;52.684;9.758;2023-04-25T09:12:39;100767.56;;;14.13;51.82
5651;BME280;40241;52.684;9.758;2023-04-25T09:15:10;100777.25;;;13.96;50.79
5651;BME280;40241;52.684;9.758;2023-04-25T09:17:36;100783.81;;;13.93;51.57
5651;BME280;40241;52.684;9.758;2023-04-25T09:20:10;100785.81;;;13.92;51.54
5651;BME280;40241;52.684;9.758;2023-04-25T09:22:36;100797.28;;;14.13;51.61
5651;BME280;40241;52.684;9.758;2023-04-25T09:25:10;100787.31;;;14.28;49.41
5651;BME280;40241;52.684;9.758;2023-04-25T09:27:36;100791.97;;;14.15;50.32
5651;BME280;40241;52.684;9.758;2023-04-25T09:30:02;100794.94;;;13.76;50.17
5651;BME280;40241;52.684;9.758;2023-04-25T09:32:27;100811.88;;;13.62;50.68
5651;BME280;40241;52.684;9.758;2023-04-25T09:34:55;100816.94;;;13.52;50.93
5651;BME280;40241;52.684;9.758;2023-04-25T09:39:55;100830.22;;;13.59;50.63
5651;BME280;40241;52.684;9.758;2023-04-25T09:42:25;100821.69;;;13.57;50.91
5651;BME280;40241;52.684;9.758;2023-04-25T09:44:53;100817.16;;;13.60;50.96
5651;BME280;40241;52.684;9.758;2023-04-25T09:47:19;100822.84;;;13.84;51.44
5651;BME280;40241;52.684;9.758;2023-04-25T09:49:47;100826.66;;;14.21;50.82
5651;BME280;40241;52.684;9.758;2023-04-25T09:52:18;100823.66;;;14.19;49.97
5651;BME280;40241;52.684;9.758;2023-04-25T09:54:44;100832.78;;;14.03;50.25
5651;BME280;40241;52.684;9.758;2023-04-25T09:57:21;100836.44;;;13.76;48.92
5651;BME280;40241;52.684;9.758;2023-04-25T09:59:51;100833.81;;;13.43;50.25
5651;BME280;40241;52.684;9.758;2023-04-25T10:02:23;100845.69;;;13.21;50.71
5651;BME280;40241;52.684;9.758;2023-04-25T10:04:52;100852.97;;;12.97;50.82
5651;BME280;40241;52.684;9.758;2023-04-25T10:07:24;100863.28;;;12.79;51.23
5651;BME280;40241;52.684;9.758;2023-04-25T10:10:01;100871.28;;;12.55;51.04
5651;BME280;40241;52.684;9.758;2023-04-25T10:12:28;100867.00;;;12.43;51.55
5651;BME280;40241;52.684;9.758;2023-04-25T10:14:54;100878.50;;;12.31;51.85
5651;BME280;40241;52.684;9.758;2023-04-25T10:17:20;100877.97;;;12.21;52.17
5651;BME280;40241;52.684;9.758;2023-04-25T10:19:48;100882.00;;;12.20;52.44
5651;BME280;40241;52.684;9.758;2023-04-25T10:22:18;100888.53;;;12.23;51.71
5651;BME280;40241;52.684;9.758;2023-04-25T10:24:46;100901.28;;;12.15;52.20
5651;BME280;40241;52.684;9.758;2023-04-25T10:27:12;100892.28;;;12.20;52.25
5651;BME280;40241;52.684;9.758;2023-04-25T10:29:37;100886.31;;;12.38;52.52
5651;BME280;40241;52.684;9.758;2023-04-25T10:32:03;100883.81;;;12.51;52.20
5651;BME280;40241;52.684;9.758;2023-04-25T10:34:39;100884.84;;;12.70;52.09
5651;BME280;40241;52.684;9.758;2023-04-25T10:37:08;100878.06;;;12.82;51.74
5651;BME280;40241;52.684;9.758;2023-04-25T10:39:34;100881.56;;;12.94;51.74
5651;BME280;40241;52.684;9.758;2023-04-25T10:42:01;100882.59;;;13.07;51.73
5651;BME280;40241;52.684;9.758;2023-04-25T10:44:30;100878.78;;;13.32;51.28
5651;BME280;40241;52.684;9.758;2023-04-25T10:46:59;100888.06;;;13.51;51.29
5651;BME280;40241;52.684;9.758;2023-04-25T10:52:27;100889.59;;;14.04;48.16
5651;BME280;40241;52.684;9.758;2023-04-25T10:54:57;100885.97;;;14.37;49.76
5651;BME280;40241;52.684;9.758;2023-04-25T11:00:13;100874.44;;;14.63;49.18
5651;BME280;40241;52.684;9.758;2023-04-25T11:02:48;100876.56;;;14.81;48.40
5651;BME280;40241;52.684;9.758;2023-04-25T11:05:20;100870.69;;;14.90;48.79
5651;BME280;40241;52.684;9.758;2023-04-25T11:07:57;100876.22;;;14.90;47.99
5651;BME280;40241;52.684;9.758;2023-04-25T11:10:26;100889.69;;;14.80;48.34
5651;BME280;40241;52.684;9.758;2023-04-25T11:12:52;100880.97;;;14.65;49.19
5651;BME280;40241;52.684;9.758;2023-04-25T11:15:18;100884.81;;;14.57;48.89
5651;BME280;40241;52.684;9.758;2023-04-25T11:17:43;100888.59;;;14.54;48.81
5651;BME280;40241;52.684;9.758;2023-04-25T11:20:11;100888.59;;;14.54;48.76
5651;BME280;40241;52.684;9.758;2023-04-25T11:22:39;100896.56;;;14.68;48.42
5651;BME280;40241;52.684;9.758;2023-04-25T11:25:09;100886.44;;;14.76;48.49
5651;BME280;40241;52.684;9.758;2023-04-25T11:27:38;100897.00;;;15.08;48.39
5651;BME280;40241;52.684;9.758;2023-04-25T11:30:14;100893.47;;;15.07;46.55
5651;BME280;40241;52.684;9.758;2023-04-25T11:32:43;100899.44;;;15.17;47.88
5651;BME280;40241;52.684;9.758;2023-04-25T11:35:11;100892.34;;;15.21;47.41
5651;BME280;40241;52.684;9.758;2023-04-25T11:37:39;100893.13;;;15.16;47.59
5651;BME280;40241;52.684;9.758;2023-04-25T11:40:05;100886.50;;;15.25;47.67
5651;BME280;40241;52.684;9.758;2023-04-25T11:42:31;100885.88;;;15.13;47.55
5651;BME280;40241;52.684;9.758;2023-04-25T11:44:57;100896.97;;;15.37;47.92
5651;BME280;40241;52.684;9.758;2023-04-25T11:47:30;100893.63;;;15.68;46.76
5651;BME280;40241;52.684;9.758;2023-04-25T11:49:58;100910.44;;;15.76;46.98
5651;BME280;40241;52.684;9.758;2023-04-25T11:52:24;100895.94;;;16.07;46.61
5651;BME280;40241;52.684;9.758;2023-04-25T11:54:50;100891.50;;;16.36;46.31
5651;BME280;40241;52.684;9.758;2023-04-25T11:57:19;100897.66;;;16.29;45.56
5651;BME280;40241;52.684;9.758;2023-04-25T11:59:44;100899.63;;;16.15;45.92
5651;BME280;40241;52.684;9.758;2023-04-25T12:02:24;100912.34;;;15.87;42.96
5651;BME280;40241;52.684;9.758;2023-04-25T12:04:49;100913.03;;;15.44;46.05
5651;BME280;40241;52.684;9.758;2023-04-25T12:07:14;100924.22;;;15.03;46.32
5651;BME280;40241;52.684;9.758;2023-04-25T12:09:40;100929.00;;;14.73;46.76
5651;BME280;40241;52.684;9.758;2023-04-25T12:12:09;100952.88;;;14.41;46.40
5651;BME280;40241;52.684;9.758;2023-04-25T12:14:35;100954.00;;;14.05;47.34
5651;BME280;40241;52.684;9.758;2023-04-25T12:17:02;100957.63;;;13.78;48.29
5651;BME280;40241;52.684;9.758;2023-04-25T12:19:33;100952.13;;;13.56;48.87
5651;BME280;40241;52.684;9.758;2023-04-25T12:22:00;100956.16;;;13.43;49.34
5651;BME280;40241;52.684;9.758;2023-04-25T12:24:26;100948.13;;;13.40;49.84
5651;BME280;40241;52.684;9.758;2023-04-25T12:27:00;100956.16;;;13.49;49.67
5651;BME280;40241;52.684;9.758;2023-04-25T12:29:27;100949.34;;;13.67;49.86
5651;BME280;40241;52.684;9.758;2023-04-25T12:31:54;100947.97;;;14.01;49.45
5651;BME280;40241;52.684;9.758;2023-04-25T12:34:21;100947.06;;;14.45;49.20
5651;BME280;40241;52.684;9.758;2023-04-25T12:36:47;100952.00;;;14.63;48.52
5651;BME280;40241;52.684;9.758;2023-04-25T12:41:45;100957.38;;;14.44;48.37
5651;BME280;40241;52.684;9.758;2023-04-25T12:44:12;100943.75;;;14.46;48.66
5651;BME280;40241;52.684;9.758;2023-04-25T12:46:37;100948.69;;;14.64;48.53
5651;BME280;40241;52.684;9.758;2023-04-25T12:49:03;100943.09;;;14.75;48.16
5651;BME280;40241;52.684;9.758;2023-04-25T12:51:29;100945.06;;;14.80;48.28
5651;BME280;40241;52.684;9.758;2023-04-25T12:53:55;100931.09;;;14.97;47.99
5651;BME280;40241;52.684;9.758;2023-04-25T12:56:20;100924.03;;;15.26;47.82
5651;BME280;40241;52.684;9.758;2023-04-25T12:58:46;100927.31;;;15.54;47.64
5651;BME280;40241;52.684;9.758;2023-04-25T13:01:13;100930.84;;;15.79;46.85
5651;BME280;40241;52.684;9.758;2023-04-25T13:03:39;100931.25;;;15.64;46.00
5651;BME280;40241;52.684;9.758;2023-04-25T13:06:06;100936.34;;;15.30;46.00
5651;BME280;40241;52.684;9.758;2023-04-25T13:08:32;100964.66;;;14.88;46.14